sensor_id;sensor_type;location;lat;lon;timestamp;P1;durP1;ratioP1;P2;durP2;ratioP2
66371;SDS011;53168;51.146;17.120;2023-05-24T00:00:49;10.68;;;10.63;;
66371;SDS011;53168;51.146;17.120;2023-05-24T00:03:30;9.74;;;9.71;;
66371;SDS011;53168;51.146;17.120;2023-05-24T00:06:08;10.55;;;10.52;;
66371;SDS011;53168;51.146;17.120;2023-05-24T00:08:42;10.80;;;10.79;;
66371;SDS011;53168;51.146;17.120;2023-05-24T00:11:16;9.70;;;9.69;;
66371;SDS011;53168;51.146;17.120;2023-05-24T00:13:50;10.02;;;10.00;;
66371;SDS011;53168;51.146;17.120;2023-05-24T00:16:25;10.26;;;10.17;;
66371;SDS011;53168;51.146;17.120;2023-05-24T00:18:59;10.66;;;10.64;;
66371;SDS011;53168;51.146;17.120;2023-05-24T00:21:33;10.45;;;10.45;;
66371;SDS011;53168;51.146;17.120;2023-05-24T00:24:07;10.17;;;10.16;;
66371;SDS011;53168;51.146;17.120;2023-05-24T00:26:41;9.50;;;9.50;;
66371;SDS011;53168;51.146;17.120;2023-05-24T00:29:15;9.96;;;9.96;;
66371;SDS011;53168;51.146;17.120;2023-05-24T00:31:49;10.20;;;10.20;;
66371;SDS011;53168;51.146;17.120;2023-05-24T00:34:23;11.80;;;11.80;;
66371;SDS011;53168;51.146;17.120;2023-05-24T00:36:57;13.32;;;13.32;;
66371;SDS011;53168;51.146;17.120;2023-05-24T00:39:30;13.90;;;13.88;;
66371;SDS011;53168;51.146;17.120;2023-05-24T00:42:05;14.96;;;14.91;;
66371;SDS011;53168;51.146;17.120;2023-05-24T00:44:39;13.36;;;13.35;;
66371;SDS011;53168;51.146;17.120;2023-05-24T00:47:13;14.02;;;13.99;;
66371;SDS011;53168;51.146;17.120;2023-05-24T00:49:50;12.85;;;12.84;;
66371;SDS011;53168;51.146;17.120;2023-05-24T00:52:24;14.54;;;14.46;;
66371;SDS011;53168;51.146;17.120;2023-05-24T00:54:59;14.99;;;14.92;;
66371;SDS011;53168;51.146;17.120;2023-05-24T00:57:33;11.53;;;11.52;;
66371;SDS011;53168;51.146;17.120;2023-05-24T01:00:10;7.89;;;7.89;;
66371;SDS011;53168;51.146;17.120;2023-05-24T01:02:45;5.48;;;5.48;;
66371;SDS011;53168;51.146;17.120;2023-05-24T01:05:20;4.01;;;4.01;;
66371;SDS011;53168;51.146;17.120;2023-05-24T01:07:57;4.62;;;4.62;;
66371;SDS011;53168;51.146;17.120;2023-05-24T01:10:46;4.36;;;4.36;;
66371;SDS011;53168;51.146;17.120;2023-05-24T01:13:33;3.86;;;3.86;;
66371;SDS011;53168;51.146;17.120;2023-05-24T01:16:19;4.07;;;4.07;;
66371;SDS011;53168;51.146;17.120;2023-05-24T01:19:04;3.88;;;3.88;;
66371;SDS011;53168;51.146;17.120;2023-05-24T01:22:33;2.84;;;2.84;;
66371;SDS011;53168;51.146;17.120;2023-05-24T01:28:48;1.34;;;1.34;;
66371;SDS011;53168;51.146;17.120;2023-05-24T01:31:24;1.27;;;1.27;;
66371;SDS011;53168;51.146;17.120;2023-05-24T01:33:59;1.16;;;1.16;;
66371;SDS011;53168;51.146;17.120;2023-05-24T01:36:34;1.21;;;1.21;;
66371;SDS011;53168;51.146;17.120;2023-05-24T01:39:08;1.12;;;1.12;;
66371;SDS011;53168;51.146;17.120;2023-05-24T01:41:56;1.00;;;1.00;;
66371;SDS011;53168;51.146;17.120;2023-05-24T01:45:07;0.92;;;0.92;;
66371;SDS011;53168;51.146;17.120;2023-05-24T01:48:01;1.24;;;1.24;;
66371;SDS011;53168;51.146;17.120;2023-05-24T01:51:23;1.47;;;1.47;;
66371;SDS011;53168;51.146;17.120;2023-05-24T01:54:11;1.47;;;1.47;;
66371;SDS011;53168;51.146;17.120;2023-05-24T02:01:31;1.64;;;1.64;;
66371;SDS011;53168;51.146;17.120;2023-05-24T02:04:06;1.95;;;1.95;;
66371;SDS011;53168;51.146;17.120;2023-05-24T02:06:40;1.53;;;1.53;;
66371;SDS011;53168;51.146;17.120;2023-05-24T02:09:14;1.71;;;1.71;;
66371;SDS011;53168;51.146;17.120;2023-05-24T02:11:48;1.98;;;1.98;;
66371;SDS011;53168;51.146;17.120;2023-05-24T02:14:21;1.96;;;1.96;;
66371;SDS011;53168;51.146;17.120;2023-05-24T02:16:55;2.16;;;2.16;;
66371;SDS011;53168;51.146;17.120;2023-05-24T02:19:31;2.23;;;2.23;;
66371;SDS011;53168;51.146;17.120;2023-05-24T02:22:07;2.19;;;2.19;;
66371;SDS011;53168;51.146;17.120;2023-05-24T02:24:41;2.64;;;2.64;;
66371;SDS011;53168;51.146;17.120;2023-05-24T02:27:16;2.95;;;2.95;;
66371;SDS011;53168;51.146;17.120;2023-05-24T02:29:50;2.99;;;2.99;;
66371;SDS011;53168;51.146;17.120;2023-05-24T02:32:24;3.28;;;3.28;;
66371;SDS011;53168;51.146;17.120;2023-05-24T02:34:58;3.12;;;3.12;;
66371;SDS011;53168;51.146;17.120;2023-05-24T02:37:31;2.77;;;2.75;;
66371;SDS011;53168;51.146;17.120;2023-05-24T02:40:07;2.74;;;2.74;;
66371;SDS011;53168;51.146;17.120;2023-05-24T02:42:42;2.69;;;2.69;;
66371;SDS011;53168;51.146;17.120;2023-05-24T02:45:15;2.90;;;2.90;;
66371;SDS011;53168;51.146;17.120;2023-05-24T02:47:49;2.56;;;2.56;;
66371;SDS011;53168;51.146;17.120;2023-05-24T02:50:27;2.45;;;2.45;;
66371;SDS011;53168;51.146;17.120;2023-05-24T02:53:01;2.41;;;2.41;;
66371;SDS011;53168;51.146;17.120;2023-05-24T02:55:35;2.91;;;2.91;;
66371;SDS011;53168;51.146;17.120;2023-05-24T02:58:12;2.83;;;2.83;;
66371;SDS011;53168;51.146;17.120;2023-05-24T03:00:48;2.47;;;2.47;;
66371;SDS011;53168;51.146;17.120;2023-05-24T03:03:23;2.63;;;2.63;;
66371;SDS011;53168;51.146;17.120;2023-05-24T03:05:58;2.56;;;2.56;;
66371;SDS011;53168;51.146;17.120;2023-05-24T03:08:33;2.67;;;2.67;;
66371;SDS011;53168;51.146;17.120;2023-05-24T03:11:07;3.00;;;3.00;;
66371;SDS011;53168;51.146;17.120;2023-05-24T03:13:42;2.86;;;2.86;;
66371;SDS011;53168;51.146;17.120;2023-05-24T03:16:17;2.89;;;2.89;;
66371;SDS011;53168;51.146;17.120;2023-05-24T03:18:52;2.90;;;2.90;;
66371;SDS011;53168;51.146;17.120;2023-05-24T03:21:28;2.47;;;2.47;;
66371;SDS011;53168;51.146;17.120;2023-05-24T03:24:04;2.53;;;2.53;;
66371;SDS011;53168;51.146;17.120;2023-05-24T03:26:39;2.59;;;2.59;;
66371;SDS011;53168;51.146;17.120;2023-05-24T03:29:13;2.45;;;2.45;;
66371;SDS011;53168;51.146;17.120;2023-05-24T03:31:47;2.54;;;2.54;;
66371;SDS011;53168;51.146;17.120;2023-05-24T03:34:21;2.77;;;2.77;;
66371;SDS011;53168;51.146;17.120;2023-05-24T03:36:55;2.51;;;2.51;;
66371;SDS011;53168;51.146;17.120;2023-05-24T03:39:29;2.55;;;2.55;;
66371;SDS011;53168;51.146;17.120;2023-05-24T03:42:32;2.49;;;2.49;;
66371;SDS011;53168;51.146;17.120;2023-05-24T03:45:08;2.76;;;2.76;;
66371;SDS011;53168;51.146;17.120;2023-05-24T03:47:53;2.78;;;2.78;;
66371;SDS011;53168;51.146;17.120;2023-05-24T03:50:27;2.58;;;2.58;;
66371;SDS011;53168;51.146;17.120;2023-05-24T03:53:00;3.30;;;3.30;;
66371;SDS011;53168;51.146;17.120;2023-05-24T03:55:36;2.94;;;2.94;;
66371;SDS011;53168;51.146;17.120;2023-05-24T03:58:12;2.75;;;2.75;;
66371;SDS011;53168;51.146;17.120;2023-05-24T04:00:46;3.14;;;3.14;;
66371;SDS011;53168;51.146;17.120;2023-05-24T04:03:19;3.03;;;3.03;;
66371;SDS011;53168;51.146;17.120;2023-05-24T04:05:58;2.78;;;2.78;;
66371;SDS011;53168;51.146;17.120;2023-05-24T04:08:32;3.14;;;3.14;;
66371;SDS011;53168;51.146;17.120;2023-05-24T04:11:06;3.52;;;3.52;;
66371;SDS011;53168;51.146;17.120;2023-05-24T04:13:40;3.25;;;3.25;;
66371;SDS011;53168;51.146;17.120;2023-05-24T04:16:14;3.19;;;3.19;;
66371;SDS011;53168;51.146;17.120;2023-05-24T04:18:48;3.24;;;3.24;;
66371;SDS011;53168;51.146;17.120;2023-05-24T04:21:22;3.70;;;3.70;;
66371;SDS011;53168;51.146;17.120;2023-05-24T04:23:56;3.87;;;3.87;;
66371;SDS011;53168;51.146;17.120;2023-05-24T04:26:33;3.37;;;3.37;;
66371;SDS011;53168;51.146;17.120;2023-05-24T04:29:07;4.02;;;4.02;;
66371;SDS011;53168;51.146;17.120;2023-05-24T04:31:41;3.95;;;3.95;;
66371;SDS011;53168;51.146;17.120;2023-05-24T04:34:17;3.80;;;3.80;;
66371;SDS011;53168;51.146;17.120;2023-05-24T04:36:51;3.87;;;3.87;;
66371;SDS011;53168;51.146;17.120;2023-05-24T04:39:26;4.77;;;4.77;;
66371;SDS011;53168;51.146;17.120;2023-05-24T04:42:00;4.46;;;4.46;;
66371;SDS011;53168;51.146;17.120;2023-05-24T04:44:35;3.99;;;3.99;;
66371;SDS011;53168;51.146;17.120;2023-05-24T04:47:11;4.30;;;4.30;;
66371;SDS011;53168;51.146;17.120;2023-05-24T04:49:45;4.69;;;4.69;;
66371;SDS011;53168;51.146;17.120;2023-05-24T04:52:20;4.29;;;4.29;;
66371;SDS011;53168;51.146;17.120;2023-05-24T04:54:54;4.59;;;4.59;;
66371;SDS011;53168;51.146;17.120;2023-05-24T04:57:28;4.83;;;4.83;;
66371;SDS011;53168;51.146;17.120;2023-05-24T05:00:02;4.53;;;4.53;;
66371;SDS011;53168;51.146;17.120;2023-05-24T05:06:05;4.97;;;4.97;;
66371;SDS011;53168;51.146;17.120;2023-05-24T05:24:08;6.26;;;6.26;;
66371;SDS011;53168;51.146;17.120;2023-05-24T05:26:44;5.61;;;5.61;;
66371;SDS011;53168;51.146;17.120;2023-05-24T05:29:15;5.53;;;5.53;;
66371;SDS011;53168;51.146;17.120;2023-05-24T05:31:46;6.54;;;6.54;;
66371;SDS011;53168;51.146;17.120;2023-05-24T05:34:16;6.92;;;6.92;;
66371;SDS011;53168;51.146;17.120;2023-05-24T05:36:47;5.75;;;5.74;;
66371;SDS011;53168;51.146;17.120;2023-05-24T05:39:18;5.87;;;5.87;;
66371;SDS011;53168;51.146;17.120;2023-05-24T05:41:47;6.33;;;6.33;;
66371;SDS011;53168;51.146;17.120;2023-05-24T05:44:17;6.46;;;6.46;;
66371;SDS011;53168;51.146;17.120;2023-05-24T05:46:47;5.80;;;5.80;;
66371;SDS011;53168;51.146;17.120;2023-05-24T05:49:17;5.74;;;5.74;;
66371;SDS011;53168;51.146;17.120;2023-05-24T05:51:46;5.11;;;5.11;;
66371;SDS011;53168;51.146;17.120;2023-05-24T05:54:16;5.14;;;5.14;;
66371;SDS011;53168;51.146;17.120;2023-05-24T05:56:45;5.57;;;5.57;;
66371;SDS011;53168;51.146;17.120;2023-05-24T05:59:15;5.14;;;5.14;;
66371;SDS011;53168;51.146;17.120;2023-05-24T06:01:50;5.48;;;5.46;;
66371;SDS011;53168;51.146;17.120;2023-05-24T06:04:35;5.21;;;5.20;;
66371;SDS011;53168;51.146;17.120;2023-05-24T06:07:05;5.16;;;5.16;;
66371;SDS011;53168;51.146;17.120;2023-05-24T06:09:35;4.61;;;4.61;;
66371;SDS011;53168;51.146;17.120;2023-05-24T06:12:05;4.09;;;4.08;;
66371;SDS011;53168;51.146;17.120;2023-05-24T06:14:35;4.87;;;4.86;;
66371;SDS011;53168;51.146;17.120;2023-05-24T06:17:05;4.41;;;4.38;;
66371;SDS011;53168;51.146;17.120;2023-05-24T06:19:35;3.93;;;3.90;;
66371;SDS011;53168;51.146;17.120;2023-05-24T06:22:05;4.52;;;4.44;;
66371;SDS011;53168;51.146;17.120;2023-05-24T06:24:35;4.81;;;4.77;;
66371;SDS011;53168;51.146;17.120;2023-05-24T06:27:05;4.81;;;4.79;;
66371;SDS011;53168;51.146;17.120;2023-05-24T06:29:38;4.80;;;4.78;;
66371;SDS011;53168;51.146;17.120;2023-05-24T06:32:08;4.09;;;4.09;;
66371;SDS011;53168;51.146;17.120;2023-05-24T06:34:38;4.84;;;4.79;;
66371;SDS011;53168;51.146;17.120;2023-05-24T06:37:08;4.68;;;4.55;;
66371;SDS011;53168;51.146;17.120;2023-05-24T06:39:41;4.62;;;4.50;;
66371;SDS011;53168;51.146;17.120;2023-05-24T06:42:11;4.24;;;4.13;;
66371;SDS011;53168;51.146;17.120;2023-05-24T06:44:45;4.24;;;4.05;;
66371;SDS011;53168;51.146;17.120;2023-05-24T06:47:14;5.34;;;5.09;;
66371;SDS011;53168;51.146;17.120;2023-05-24T06:49:45;4.79;;;4.56;;
66371;SDS011;53168;51.146;17.120;2023-05-24T06:52:15;4.65;;;4.41;;
66371;SDS011;53168;51.146;17.120;2023-05-24T06:54:44;4.24;;;4.09;;
66371;SDS011;53168;51.146;17.120;2023-05-24T06:57:14;4.80;;;4.66;;
66371;SDS011;53168;51.146;17.120;2023-05-24T06:59:43;4.66;;;4.58;;
66371;SDS011;53168;51.146;17.120;2023-05-24T07:02:13;4.39;;;4.16;;
66371;SDS011;53168;51.146;17.120;2023-05-24T07:04:43;4.75;;;4.46;;
66371;SDS011;53168;51.146;17.120;2023-05-24T07:07:14;4.75;;;4.46;;
66371;SDS011;53168;51.146;17.120;2023-05-24T07:09:43;4.37;;;4.13;;
66371;SDS011;53168;51.146;17.120;2023-05-24T07:12:14;4.41;;;4.18;;
66371;SDS011;53168;51.146;17.120;2023-05-24T07:14:45;4.52;;;4.32;;
66371;SDS011;53168;51.146;17.120;2023-05-24T07:17:15;4.19;;;4.10;;
66371;SDS011;53168;51.146;17.120;2023-05-24T07:19:44;4.58;;;4.45;;
66371;SDS011;53168;51.146;17.120;2023-05-24T07:22:14;4.33;;;4.21;;
66371;SDS011;53168;51.146;17.120;2023-05-24T07:24:44;4.07;;;3.92;;
66371;SDS011;53168;51.146;17.120;2023-05-24T07:27:15;4.37;;;4.17;;
66371;SDS011;53168;51.146;17.120;2023-05-24T07:29:44;4.52;;;4.36;;
66371;SDS011;53168;51.146;17.120;2023-05-24T07:32:16;4.84;;;4.66;;
66371;SDS011;53168;51.146;17.120;2023-05-24T07:34:45;4.52;;;4.40;;
66371;SDS011;53168;51.146;17.120;2023-05-24T08:17:38;4.62;;;4.58;;
66371;SDS011;53168;51.146;17.120;2023-05-24T08:20:19;6.17;;;5.66;;
66371;SDS011;53168;51.146;17.120;2023-05-24T08:22:54;5.63;;;5.51;;
66371;SDS011;53168;51.146;17.120;2023-05-24T08:25:28;5.52;;;5.48;;
66371;SDS011;53168;51.146;17.120;2023-05-24T08:28:04;5.90;;;5.90;;
66371;SDS011;53168;51.146;17.120;2023-05-24T08:30:39;5.55;;;5.50;;
66371;SDS011;53168;51.146;17.120;2023-05-24T08:33:13;5.79;;;5.77;;
66371;SDS011;53168;51.146;17.120;2023-05-24T08:35:52;5.36;;;5.28;;
66371;SDS011;53168;51.146;17.120;2023-05-24T08:38:26;6.13;;;6.07;;
66371;SDS011;53168;51.146;17.120;2023-05-24T08:41:00;5.92;;;5.86;;
66371;SDS011;53168;51.146;17.120;2023-05-24T08:43:40;5.94;;;5.88;;
66371;SDS011;53168;51.146;17.120;2023-05-24T08:46:22;5.75;;;5.69;;
66371;SDS011;53168;51.146;17.120;2023-05-24T08:48:58;6.26;;;6.25;;
66371;SDS011;53168;51.146;17.120;2023-05-24T08:51:38;5.99;;;5.98;;
66371;SDS011;53168;51.146;17.120;2023-05-24T08:54:14;6.20;;;6.20;;
66371;SDS011;53168;51.146;17.120;2023-05-24T08:56:50;6.21;;;6.20;;
66371;SDS011;53168;51.146;17.120;2023-05-24T08:59:24;6.09;;;6.07;;
66371;SDS011;53168;51.146;17.120;2023-05-24T09:01:58;5.14;;;5.14;;
66371;SDS011;53168;51.146;17.120;2023-05-24T09:04:36;5.25;;;5.21;;
66371;SDS011;53168;51.146;17.120;2023-05-24T09:07:13;5.47;;;5.47;;
66371;SDS011;53168;51.146;17.120;2023-05-24T09:09:52;5.19;;;5.19;;
66371;SDS011;53168;51.146;17.120;2023-05-24T09:12:35;5.75;;;5.75;;
66371;SDS011;53168;51.146;17.120;2023-05-24T09:15:14;5.77;;;5.77;;
66371;SDS011;53168;51.146;17.120;2023-05-24T09:17:50;5.15;;;5.14;;
66371;SDS011;53168;51.146;17.120;2023-05-24T09:20:24;5.51;;;5.46;;
66371;SDS011;53168;51.146;17.120;2023-05-24T09:22:59;6.26;;;6.22;;
66371;SDS011;53168;51.146;17.120;2023-05-24T09:25:39;5.72;;;5.69;;
66371;SDS011;53168;51.146;17.120;2023-05-24T09:28:19;5.81;;;5.79;;
66371;SDS011;53168;51.146;17.120;2023-05-24T09:31:00;5.36;;;5.35;;
66371;SDS011;53168;51.146;17.120;2023-05-24T09:33:37;5.77;;;5.76;;
66371;SDS011;53168;51.146;17.120;2023-05-24T09:36:11;6.27;;;6.24;;
66371;SDS011;53168;51.146;17.120;2023-05-24T09:38:52;6.02;;;6.01;;
66371;SDS011;53168;51.146;17.120;2023-05-24T09:41:42;5.97;;;5.94;;
66371;SDS011;53168;51.146;17.120;2023-05-24T09:44:25;6.16;;;6.16;;
66371;SDS011;53168;51.146;17.120;2023-05-24T09:50:30;5.94;;;5.94;;
66371;SDS011;53168;51.146;17.120;2023-05-24T09:56:38;6.17;;;6.17;;
66371;SDS011;53168;51.146;17.120;2023-05-24T09:59:38;5.49;;;5.49;;
66371;SDS011;53168;51.146;17.120;2023-05-24T10:06:12;5.44;;;5.42;;
66371;SDS011;53168;51.146;17.120;2023-05-24T10:15:32;6.01;;;6.01;;
66371;SDS011;53168;51.146;17.120;2023-05-24T10:19:09;6.37;;;6.36;;
66371;SDS011;53168;51.146;17.120;2023-05-24T10:25:31;6.97;;;6.97;;
66371;SDS011;53168;51.146;17.120;2023-05-24T10:28:31;6.52;;;6.52;;
66371;SDS011;53168;51.146;17.120;2023-05-24T10:31:31;5.87;;;5.87;;
66371;SDS011;53168;51.146;17.120;2023-05-24T10:35:17;6.16;;;6.16;;
66371;SDS011;53168;51.146;17.120;2023-05-24T10:37:52;5.75;;;5.75;;
66371;SDS011;53168;51.146;17.120;2023-05-24T10:40:28;5.37;;;5.37;;
66371;SDS011;53168;51.146;17.120;2023-05-24T10:43:06;6.62;;;6.62;;
66371;SDS011;53168;51.146;17.120;2023-05-24T10:49:50;6.93;;;6.93;;
66371;SDS011;53168;51.146;17.120;2023-05-24T10:52:35;6.31;;;6.29;;
66371;SDS011;53168;51.146;17.120;2023-05-24T10:55:11;5.91;;;5.91;;
66371;SDS011;53168;51.146;17.120;2023-05-24T11:00:58;6.38;;;6.38;;
66371;SDS011;53168;51.146;17.120;2023-05-24T11:03:34;6.62;;;6.62;;
66371;SDS011;53168;51.146;17.120;2023-05-24T11:06:11;6.84;;;6.84;;
66371;SDS011;53168;51.146;17.120;2023-05-24T11:08:48;7.41;;;7.41;;
66371;SDS011;53168;51.146;17.120;2023-05-24T11:11:28;6.74;;;6.74;;
66371;SDS011;53168;51.146;17.120;2023-05-24T11:14:11;5.91;;;5.91;;
66371;SDS011;53168;51.146;17.120;2023-05-24T11:16:49;5.69;;;5.69;;
66371;SDS011;53168;51.146;17.120;2023-05-24T11:19:37;7.14;;;7.14;;
66371;SDS011;53168;51.146;17.120;2023-05-24T11:22:19;6.42;;;6.42;;
66371;SDS011;53168;51.146;17.120;2023-05-24T11:25:00;5.84;;;5.84;;
66371;SDS011;53168;51.146;17.120;2023-05-24T11:27:53;5.55;;;5.55;;
66371;SDS011;53168;51.146;17.120;2023-05-24T11:30:36;6.42;;;6.40;;
66371;SDS011;53168;51.146;17.120;2023-05-24T11:36:22;5.97;;;5.97;;
66371;SDS011;53168;51.146;17.120;2023-05-24T11:39:07;5.07;;;5.07;;
66371;SDS011;53168;51.146;17.120;2023-05-24T11:41:44;5.22;;;5.22;;
66371;SDS011;53168;51.146;17.120;2023-05-24T11:44:23;5.90;;;5.89;;
66371;SDS011;53168;51.146;17.120;2023-05-24T11:47:00;5.66;;;5.65;;
66371;SDS011;53168;51.146;17.120;2023-05-24T11:49:37;5.72;;;5.71;;
66371;SDS011;53168;51.146;17.120;2023-05-24T11:52:14;5.50;;;5.50;;
66371;SDS011;53168;51.146;17.120;2023-05-24T11:54:48;4.46;;;4.46;;
66371;SDS011;53168;51.146;17.120;2023-05-24T11:57:25;4.76;;;4.76;;
66371;SDS011;53168;51.146;17.120;2023-05-24T12:00:15;5.33;;;5.33;;
66371;SDS011;53168;51.146;17.120;2023-05-24T12:03:06;5.37;;;5.37;;
66371;SDS011;53168;51.146;17.120;2023-05-24T12:05:42;5.62;;;5.62;;
66371;SDS011;53168;51.146;17.120;2023-05-24T12:08:24;5.09;;;5.09;;
66371;SDS011;53168;51.146;17.120;2023-05-24T12:11:01;5.24;;;5.24;;
66371;SDS011;53168;51.146;17.120;2023-05-24T12:13:40;5.40;;;5.40;;
66371;SDS011;53168;51.146;17.120;2023-05-24T12:16:15;5.12;;;5.12;;
66371;SDS011;53168;51.146;17.120;2023-05-24T12:19:00;4.66;;;4.66;;
66371;SDS011;53168;51.146;17.120;2023-05-24T12:21:45;4.86;;;4.86;;
66371;SDS011;53168;51.146;17.120;2023-05-24T12:24:26;5.15;;;5.15;;
66371;SDS011;53168;51.146;17.120;2023-05-24T12:27:04;6.14;;;6.14;;
66371;SDS011;53168;51.146;17.120;2023-05-24T12:29:39;6.51;;;6.51;;
66371;SDS011;53168;51.146;17.120;2023-05-24T12:32:13;5.73;;;5.73;;
66371;SDS011;53168;51.146;17.120;2023-05-24T12:34:48;5.59;;;5.59;;
66371;SDS011;53168;51.146;17.120;2023-05-24T12:37:23;5.39;;;5.39;;
66371;SDS011;53168;51.146;17.120;2023-05-24T12:40:00;5.00;;;5.00;;
66371;SDS011;53168;51.146;17.120;2023-05-24T12:42:45;5.63;;;5.63;;
66371;SDS011;53168;51.146;17.120;2023-05-24T12:45:25;6.06;;;6.06;;
66371;SDS011;53168;51.146;17.120;2023-05-24T12:48:01;5.95;;;5.95;;
66371;SDS011;53168;51.146;17.120;2023-05-24T12:50:35;5.18;;;5.18;;
66371;SDS011;53168;51.146;17.120;2023-05-24T12:53:12;5.63;;;5.63;;
66371;SDS011;53168;51.146;17.120;2023-05-24T12:55:56;5.22;;;5.22;;
66371;SDS011;53168;51.146;17.120;2023-05-24T12:58:30;4.86;;;4.86;;
66371;SDS011;53168;51.146;17.120;2023-05-24T13:01:04;5.64;;;5.64;;
66371;SDS011;53168;51.146;17.120;2023-05-24T13:03:38;5.64;;;5.64;;
66371;SDS011;53168;51.146;17.120;2023-05-24T13:06:12;6.02;;;6.02;;
66371;SDS011;53168;51.146;17.120;2023-05-24T13:08:46;5.82;;;5.82;;
66371;SDS011;53168;51.146;17.120;2023-05-24T13:11:20;5.87;;;5.87;;
66371;SDS011;53168;51.146;17.120;2023-05-24T13:13:55;5.61;;;5.61;;
66371;SDS011;53168;51.146;17.120;2023-05-24T13:16:34;5.05;;;5.05;;
66371;SDS011;53168;51.146;17.120;2023-05-24T13:19:08;5.31;;;5.31;;
66371;SDS011;53168;51.146;17.120;2023-05-24T13:21:42;5.39;;;5.39;;
66371;SDS011;53168;51.146;17.120;2023-05-24T13:24:16;5.70;;;5.70;;
66371;SDS011;53168;51.146;17.120;2023-05-24T13:26:50;5.29;;;5.29;;
66371;SDS011;53168;51.146;17.120;2023-05-24T13:29:24;5.19;;;5.19;;
66371;SDS011;53168;51.146;17.120;2023-05-24T13:32:13;5.51;;;5.51;;
66371;SDS011;53168;51.146;17.120;2023-05-24T13:34:48;5.66;;;5.66;;
66371;SDS011;53168;51.146;17.120;2023-05-24T13:37:29;5.68;;;5.68;;
66371;SDS011;53168;51.146;17.120;2023-05-24T13:40:03;5.31;;;5.31;;
66371;SDS011;53168;51.146;17.120;2023-05-24T13:42:48;4.96;;;4.96;;
66371;SDS011;53168;51.146;17.120;2023-05-24T13:45:49;5.62;;;5.62;;
66371;SDS011;53168;51.146;17.120;2023-05-24T13:48:24;5.37;;;5.37;;
66371;SDS011;53168;51.146;17.120;2023-05-24T14:15:25;4.66;;;4.66;;
66371;SDS011;53168;51.146;17.120;2023-05-24T14:18:00;4.97;;;4.97;;
66371;SDS011;53168;51.146;17.120;2023-05-24T14:20:38;4.96;;;4.96;;
66371;SDS011;53168;51.146;17.120;2023-05-24T14:23:15;4.57;;;4.57;;
66371;SDS011;53168;51.146;17.120;2023-05-24T14:25:49;4.97;;;4.97;;
66371;SDS011;53168;51.146;17.120;2023-05-24T14:28:25;5.13;;;5.13;;
66371;SDS011;53168;51.146;17.120;2023-05-24T14:31:01;4.64;;;4.64;;
66371;SDS011;53168;51.146;17.120;2023-05-24T14:33:35;4.92;;;4.92;;
66371;SDS011;53168;51.146;17.120;2023-05-24T14:36:12;4.60;;;4.60;;
66371;SDS011;53168;51.146;17.120;2023-05-24T14:38:45;4.86;;;4.86;;
66371;SDS011;53168;51.146;17.120;2023-05-24T14:41:20;4.75;;;4.75;;
66371;SDS011;53168;51.146;17.120;2023-05-24T14:43:54;5.18;;;5.18;;
66371;SDS011;53168;51.146;17.120;2023-05-24T14:46:31;4.68;;;4.68;;
66371;SDS011;53168;51.146;17.120;2023-05-24T14:49:06;4.80;;;4.80;;
66371;SDS011;53168;51.146;17.120;2023-05-24T14:51:43;4.77;;;4.77;;
66371;SDS011;53168;51.146;17.120;2023-05-24T14:54:18;4.81;;;4.81;;
66371;SDS011;53168;51.146;17.120;2023-05-24T14:56:54;4.64;;;4.64;;
66371;SDS011;53168;51.146;17.120;2023-05-24T14:59:28;4.42;;;4.42;;
66371;SDS011;53168;51.146;17.120;2023-05-24T15:02:12;4.57;;;4.57;;
66371;SDS011;53168;51.146;17.120;2023-05-24T15:04:47;4.96;;;4.96;;
66371;SDS011;53168;51.146;17.120;2023-05-24T15:07:21;5.16;;;5.16;;
66371;SDS011;53168;51.146;17.120;2023-05-24T15:09:56;5.38;;;5.38;;
66371;SDS011;53168;51.146;17.120;2023-05-24T15:12:35;5.46;;;5.46;;
66371;SDS011;53168;51.146;17.120;2023-05-24T15:15:09;5.02;;;5.02;;
66371;SDS011;53168;51.146;17.120;2023-05-24T15:17:43;4.83;;;4.83;;
66371;SDS011;53168;51.146;17.120;2023-05-24T15:20:17;4.28;;;4.28;;
66371;SDS011;53168;51.146;17.120;2023-05-24T15:22:57;4.49;;;4.49;;
66371;SDS011;53168;51.146;17.120;2023-05-24T15:25:32;4.72;;;4.72;;
66371;SDS011;53168;51.146;17.120;2023-05-24T15:28:08;4.62;;;4.62;;
66371;SDS011;53168;51.146;17.120;2023-05-24T15:30:50;4.63;;;4.63;;
66371;SDS011;53168;51.146;17.120;2023-05-24T15:33:25;4.45;;;4.45;;
66371;SDS011;53168;51.146;17.120;2023-05-24T15:36:01;4.62;;;4.62;;
66371;SDS011;53168;51.146;17.120;2023-05-24T15:38:35;3.95;;;3.95;;
66371;SDS011;53168;51.146;17.120;2023-05-24T15:41:10;4.19;;;4.19;;
66371;SDS011;53168;51.146;17.120;2023-05-24T15:43:45;3.97;;;3.97;;
66371;SDS011;53168;51.146;17.120;2023-05-24T15:46:29;3.73;;;3.73;;
66371;SDS011;53168;51.146;17.120;2023-05-24T15:49:03;4.54;;;4.54;;
66371;SDS011;53168;51.146;17.120;2023-05-24T15:51:36;3.69;;;3.69;;
66371;SDS011;53168;51.146;17.120;2023-05-24T15:54:13;3.67;;;3.67;;
66371;SDS011;53168;51.146;17.120;2023-05-24T15:56:46;3.86;;;3.86;;
66371;SDS011;53168;51.146;17.120;2023-05-24T15:59:20;3.57;;;3.57;;
66371;SDS011;53168;51.146;17.120;2023-05-24T16:01:54;3.67;;;3.67;;
66371;SDS011;53168;51.146;17.120;2023-05-24T16:04:28;3.50;;;3.50;;
66371;SDS011;53168;51.146;17.120;2023-05-24T16:07:01;3.33;;;3.33;;
66371;SDS011;53168;51.146;17.120;2023-05-24T16:09:35;4.01;;;4.01;;
66371;SDS011;53168;51.146;17.120;2023-05-24T16:12:09;4.28;;;4.28;;
66371;SDS011;53168;51.146;17.120;2023-05-24T16:14:43;3.48;;;3.48;;
66371;SDS011;53168;51.146;17.120;2023-05-24T16:17:17;3.44;;;3.44;;
66371;SDS011;53168;51.146;17.120;2023-05-24T16:19:51;3.76;;;3.76;;
66371;SDS011;53168;51.146;17.120;2023-05-24T16:22:25;3.89;;;3.89;;
66371;SDS011;53168;51.146;17.120;2023-05-24T16:24:58;3.18;;;3.18;;
66371;SDS011;53168;51.146;17.120;2023-05-24T16:27:32;3.31;;;3.31;;
66371;SDS011;53168;51.146;17.120;2023-05-24T16:30:07;3.36;;;3.36;;
66371;SDS011;53168;51.146;17.120;2023-05-24T16:32:42;2.98;;;2.98;;
66371;SDS011;53168;51.146;17.120;2023-05-24T16:35:16;3.39;;;3.39;;
66371;SDS011;53168;51.146;17.120;2023-05-24T16:37:50;3.79;;;3.79;;
66371;SDS011;53168;51.146;17.120;2023-05-24T16:40:24;3.44;;;3.44;;
66371;SDS011;53168;51.146;17.120;2023-05-24T16:42:58;4.09;;;4.09;;
66371;SDS011;53168;51.146;17.120;2023-05-24T16:45:32;3.68;;;3.68;;
66371;SDS011;53168;51.146;17.120;2023-05-24T16:48:14;3.54;;;3.54;;
66371;SDS011;53168;51.146;17.120;2023-05-24T16:51:02;4.09;;;4.09;;
66371;SDS011;53168;51.146;17.120;2023-05-24T16:53:36;4.05;;;4.05;;
66371;SDS011;53168;51.146;17.120;2023-05-24T16:56:11;3.94;;;3.94;;
66371;SDS011;53168;51.146;17.120;2023-05-24T16:58:45;3.82;;;3.82;;
66371;SDS011;53168;51.146;17.120;2023-05-24T17:01:19;4.50;;;4.50;;
66371;SDS011;53168;51.146;17.120;2023-05-24T17:03:54;4.46;;;4.46;;
66371;SDS011;53168;51.146;17.120;2023-05-24T17:06:28;4.55;;;4.55;;
66371;SDS011;53168;51.146;17.120;2023-05-24T17:09:02;4.03;;;4.03;;
66371;SDS011;53168;51.146;17.120;2023-05-24T17:11:36;4.08;;;4.08;;
66371;SDS011;53168;51.146;17.120;2023-05-24T17:14:09;3.91;;;3.91;;
66371;SDS011;53168;51.146;17.120;2023-05-24T17:16:43;3.94;;;3.94;;
66371;SDS011;53168;51.146;17.120;2023-05-24T17:19:17;4.41;;;4.41;;
66371;SDS011;53168;51.146;17.120;2023-05-24T17:21:52;4.34;;;4.34;;
66371;SDS011;53168;51.146;17.120;2023-05-24T17:24:28;4.49;;;4.49;;
66371;SDS011;53168;51.146;17.120;2023-05-24T17:27:02;4.98;;;4.98;;
66371;SDS011;53168;51.146;17.120;2023-05-24T17:29:36;4.57;;;4.57;;
66371;SDS011;53168;51.146;17.120;2023-05-24T17:32:12;4.82;;;4.82;;